sensor_id;sensor_type;location;lat;lon;timestamp;pressure;altitude;pressure_sealevel;temperature;humidity
67099;BME280;54288;53.046;5.668;2022-07-29T00:00:06;102194.88;;;14.94;72.64
67099;BME280;54288;53.046;5.668;2022-07-29T00:02:33;102185.31;;;14.89;72.63
67099;BME280;54288;53.046;5.668;2022-07-29T00:04:58;102187.06;;;14.90;72.79
67099;BME280;54288;53.046;5.668;2022-07-29T00:07:24;102157.34;;;14.79;72.52
67099;BME280;54288;53.046;5.668;2022-07-29T00:09:50;102178.25;;;14.89;72.93
67099;BME280;54288;53.046;5.668;2022-07-29T00:12:16;102166.94;;;14.84;73.30
67099;BME280;54288;53.046;5.668;2022-07-29T00:14:42;102169.53;;;14.86;73.28
67099;BME280;54288;53.046;5.668;2022-07-29T00:17:08;102167.75;;;14.88;73.28
67099;BME280;54288;53.046;5.668;2022-07-29T00:19:34;102164.31;;;14.83;73.49
67099;BME280;54288;53.046;5.668;2022-07-29T00:22:00;102165.16;;;14.85;73.57
67099;BME280;54288;53.046;5.668;2022-07-29T00:24:26;102167.81;;;14.83;73.59
67099;BME280;54288;53.046;5.668;2022-07-29T00:26:52;102159.22;;;14.72;73.92
67099;BME280;54288;53.046;5.668;2022-07-29T00:29:18;102143.34;;;14.77;73.46
67099;BME280;54288;53.046;5.668;2022-07-29T00:31:44;102149.44;;;14.79;73.74
67099;BME280;54288;53.046;5.668;2022-07-29T00:34:10;102159.97;;;14.80;74.02
67099;BME280;54288;53.046;5.668;2022-07-29T00:36:55;102146.81;;;14.79;74.20
67099;BME280;54288;53.046;5.668;2022-07-29T00:39:21;102139.72;;;14.81;74.13
67099;BME280;54288;53.046;5.668;2022-07-29T00:41:47;102147.63;;;14.81;74.47
67099;BME280;54288;53.046;5.668;2022-07-29T00:44:13;102143.28;;;14.80;74.41
67099;BME280;54288;53.046;5.668;2022-07-29T00:46:38;102135.34;;;14.81;74.37
67099;BME280;54288;53.046;5.668;2022-07-29T00:49:04;102131.09;;;14.73;74.32
67099;BME280;54288;53.046;5.668;2022-07-29T00:51:30;102132.72;;;14.80;74.78
67099;BME280;54288;53.046;5.668;2022-07-29T00:53:56;102123.16;;;14.74;74.73
67099;BME280;54288;53.046;5.668;2022-07-29T00:56:22;102126.53;;;14.81;74.47
67099;BME280;54288;53.046;5.668;2022-07-29T00:58:51;102135.31;;;14.84;74.68
67099;BME280;54288;53.046;5.668;2022-07-29T01:01:17;102127.38;;;14.84;74.64
67099;BME280;54288;53.046;5.668;2022-07-29T01:03:42;102128.31;;;14.82;74.91
67099;BME280;54288;53.046;5.668;2022-07-29T01:06:09;102121.25;;;14.82;75.19
67099;BME280;54288;53.046;5.668;2022-07-29T01:08:36;102116.00;;;14.81;75.01
67099;BME280;54288;53.046;5.668;2022-07-29T01:11:02;102111.59;;;14.83;74.69
67099;BME280;54288;53.046;5.668;2022-07-29T01:13:40;102109.84;;;14.82;75.22
67099;BME280;54288;53.046;5.668;2022-07-29T01:16:14;102107.13;;;14.85;75.23
67099;BME280;54288;53.046;5.668;2022-07-29T01:18:46;102115.94;;;14.85;75.09
67099;BME280;54288;53.046;5.668;2022-07-29T01:23:59;102115.88;;;14.88;75.04
67099;BME280;54288;53.046;5.668;2022-07-29T01:27:25;102109.69;;;14.89;75.15
67099;BME280;54288;53.046;5.668;2022-07-29T01:34:41;102106.94;;;14.95;75.17
67099;BME280;54288;53.046;5.668;2022-07-29T01:39:56;102093.00;;;14.90;75.28
67099;BME280;54288;53.046;5.668;2022-07-29T01:47:35;102096.34;;;14.98;75.39
67099;BME280;54288;53.046;5.668;2022-07-29T01:50:07;102095.44;;;14.98;75.66
67099;BME280;54288;53.046;5.668;2022-07-29T01:52:43;102087.50;;;15.01;75.47
67099;BME280;54288;53.046;5.668;2022-07-29T01:55:15;102090.06;;;15.04;75.33
67099;BME280;54288;53.046;5.668;2022-07-29T01:57:47;102076.13;;;14.99;75.61
67099;BME280;54288;53.046;5.668;2022-07-29T02:00:14;102076.84;;;15.05;75.63
67099;BME280;54288;53.046;5.668;2022-07-29T02:02:43;102068.09;;;15.05;75.36
67099;BME280;54288;53.046;5.668;2022-07-29T02:05:12;102060.16;;;15.05;75.46
67099;BME280;54288;53.046;5.668;2022-07-29T02:07:42;102064.53;;;15.06;75.80
67099;BME280;54288;53.046;5.668;2022-07-29T02:10:10;102063.63;;;15.07;75.73
67099;BME280;54288;53.046;5.668;2022-07-29T02:12:39;102057.47;;;15.06;75.34
67099;BME280;54288;53.046;5.668;2022-07-29T02:15:07;102069.72;;;15.10;75.17
67099;BME280;54288;53.046;5.668;2022-07-29T02:17:42;102061.81;;;15.09;75.42
67099;BME280;54288;53.046;5.668;2022-07-29T02:20:09;102061.03;;;15.04;75.37
67099;BME280;54288;53.046;5.668;2022-07-29T02:22:38;102063.69;;;15.04;75.53
67099;BME280;54288;53.046;5.668;2022-07-29T02:25:06;102060.22;;;15.02;75.71
67099;BME280;54288;53.046;5.668;2022-07-29T02:27:34;102053.25;;;14.98;75.53
67099;BME280;54288;53.046;5.668;2022-07-29T02:30:03;102059.41;;;14.98;75.83
67099;BME280;54288;53.046;5.668;2022-07-29T02:32:31;102053.31;;;14.95;75.65
67099;BME280;54288;53.046;5.668;2022-07-29T02:34:58;102060.41;;;14.93;76.09
67099;BME280;54288;53.046;5.668;2022-07-29T02:37:26;102055.22;;;14.87;76.17
67099;BME280;54288;53.046;5.668;2022-07-29T02:39:55;102053.44;;;14.89;75.85
67099;BME280;54288;53.046;5.668;2022-07-29T02:42:23;102052.56;;;14.87;76.28
67099;BME280;54288;53.046;5.668;2022-07-29T02:44:50;102045.66;;;14.83;76.33
67099;BME280;54288;53.046;5.668;2022-07-29T02:47:21;102046.56;;;14.82;76.48
67099;BME280;54288;53.046;5.668;2022-07-29T02:52:31;102049.13;;;14.85;76.64
67099;BME280;54288;53.046;5.668;2022-07-29T02:55:13;102039.47;;;14.84;76.33
67099;BME280;54288;53.046;5.668;2022-07-29T03:00:15;102044.78;;;14.81;76.38
67099;BME280;54288;53.046;5.668;2022-07-29T03:02:45;102047.41;;;14.82;76.94
67099;BME280;54288;53.046;5.668;2022-07-29T03:05:18;102044.75;;;14.82;76.59
67099;BME280;54288;53.046;5.668;2022-07-29T03:07:49;102030.84;;;14.76;76.64
67099;BME280;54288;53.046;5.668;2022-07-29T03:10:16;102036.13;;;14.76;76.42
67099;BME280;54288;53.046;5.668;2022-07-29T03:12:43;102034.34;;;14.76;76.67
67099;BME280;54288;53.046;5.668;2022-07-29T03:15:10;102044.84;;;14.79;76.36
67099;BME280;54288;53.046;5.668;2022-07-29T03:17:37;102041.38;;;14.76;76.64
67099;BME280;54288;53.046;5.668;2022-07-29T03:20:07;102048.28;;;14.83;76.29
67099;BME280;54288;53.046;5.668;2022-07-29T03:22:39;102040.44;;;14.78;76.34
67099;BME280;54288;53.046;5.668;2022-07-29T03:25:13;102036.94;;;14.78;76.63
67099;BME280;54288;53.046;5.668;2022-07-29T03:27:40;102033.41;;;14.79;76.00
67099;BME280;54288;53.046;5.668;2022-07-29T03:30:07;102040.44;;;14.78;76.50
67099;BME280;54288;53.046;5.668;2022-07-29T03:32:34;102029.97;;;14.75;76.48
67099;BME280;54288;53.046;5.668;2022-07-29T03:35:00;102032.63;;;14.72;76.94
67099;BME280;54288;53.046;5.668;2022-07-29T03:37:26;102032.63;;;14.74;76.61
67099;BME280;54288;53.046;5.668;2022-07-29T03:39:55;102024.78;;;14.71;76.51
67099;BME280;54288;53.046;5.668;2022-07-29T03:42:25;102016.91;;;14.68;76.27
67099;BME280;54288;53.046;5.668;2022-07-29T03:44:54;102018.59;;;14.73;76.49
67099;BME280;54288;53.046;5.668;2022-07-29T03:47:26;102027.41;;;14.71;76.59
67099;BME280;54288;53.046;5.668;2022-07-29T03:49:59;102019.53;;;14.69;76.82
67099;BME280;54288;53.046;5.668;2022-07-29T03:52:26;102020.44;;;14.67;76.66
67099;BME280;54288;53.046;5.668;2022-07-29T03:54:52;102022.22;;;14.66;76.36
67099;BME280;54288;53.046;5.668;2022-07-29T03:57:23;102008.34;;;14.55;76.94
67099;BME280;54288;53.046;5.668;2022-07-29T03:59:51;102013.47;;;14.63;76.56
67099;BME280;54288;53.046;5.668;2022-07-29T04:02:18;102023.19;;;14.61;76.49
67099;BME280;54288;53.046;5.668;2022-07-29T04:04:45;102004.88;;;14.55;76.72
67099;BME280;54288;53.046;5.668;2022-07-29T04:07:14;102011.84;;;14.57;77.00
67099;BME280;54288;53.046;5.668;2022-07-29T04:09:41;102014.53;;;14.54;76.77
67099;BME280;54288;53.046;5.668;2022-07-29T04:12:07;102024.91;;;14.63;76.19
67099;BME280;54288;53.046;5.668;2022-07-29T04:14:34;102020.50;;;14.64;76.41
67099;BME280;54288;53.046;5.668;2022-07-29T04:17:04;102023.19;;;14.62;76.28
67099;BME280;54288;53.046;5.668;2022-07-29T04:19:30;102018.75;;;14.63;76.15
67099;BME280;54288;53.046;5.668;2022-07-29T04:21:57;102014.41;;;14.60;76.22
67099;BME280;54288;53.046;5.668;2022-07-29T04:24:23;102007.31;;;14.64;75.84
67099;BME280;54288;53.046;5.668;2022-07-29T04:26:49;102016.06;;;14.67;75.61
67099;BME280;54288;53.046;5.668;2022-07-29T04:29:15;102020.34;;;14.73;75.29
67099;BME280;54288;53.046;5.668;2022-07-29T04:31:41;102016.88;;;14.71;75.35
67099;BME280;54288;53.046;5.668;2022-07-29T04:34:08;102014.19;;;14.72;75.24
67099;BME280;54288;53.046;5.668;2022-07-29T04:36:34;102010.66;;;14.73;75.40
67099;BME280;54288;53.046;5.668;2022-07-29T04:39:00;102005.44;;;14.70;75.28
67099;BME280;54288;53.046;5.668;2022-07-29T04:41:27;102006.31;;;14.71;75.41
67099;BME280;54288;53.046;5.668;2022-07-29T04:43:53;102007.97;;;14.75;75.05
67099;BME280;54288;53.046;5.668;2022-07-29T04:46:19;102004.47;;;14.76;75.45
67099;BME280;54288;53.046;5.668;2022-07-29T04:48:46;102010.59;;;14.76;75.16
67099;BME280;54288;53.046;5.668;2022-07-29T04:51:13;102007.16;;;14.71;75.43
67099;BME280;54288;53.046;5.668;2022-07-29T04:53:39;102024.63;;;14.78;75.28
67099;BME280;54288;53.046;5.668;2022-07-29T04:56:05;102024.63;;;14.78;75.60
67099;BME280;54288;53.046;5.668;2022-07-29T04:58:30;102026.38;;;14.79;75.34
67099;BME280;54288;53.046;5.668;2022-07-29T05:00:56;102014.13;;;14.75;74.85
67099;BME280;54288;53.046;5.668;2022-07-29T05:03:22;102020.19;;;14.82;75.52
67099;BME280;54288;53.046;5.668;2022-07-29T05:05:48;101994.97;;;14.67;75.74
67099;BME280;54288;53.046;5.668;2022-07-29T05:08:13;102018.50;;;14.78;75.32
67099;BME280;54288;53.046;5.668;2022-07-29T05:10:39;102020.22;;;14.79;75.84
67099;BME280;54288;53.046;5.668;2022-07-29T05:13:05;102010.44;;;14.85;75.02
67099;BME280;54288;53.046;5.668;2022-07-29T05:15:36;102019.97;;;14.92;75.10
67099;BME280;54288;53.046;5.668;2022-07-29T05:18:02;102020.75;;;14.97;74.67
67099;BME280;54288;53.046;5.668;2022-07-29T05:20:29;102014.44;;;15.04;74.18
67099;BME280;54288;53.046;5.668;2022-07-29T05:22:56;102009.13;;;15.06;73.93
67099;BME280;54288;53.046;5.668;2022-07-29T05:25:24;102027.34;;;15.18;74.02
67099;BME280;54288;53.046;5.668;2022-07-29T05:27:50;102019.88;;;15.39;72.97
67099;BME280;54288;53.046;5.668;2022-07-29T05:30:16;102012.59;;;15.50;72.34
67099;BME280;54288;53.046;5.668;2022-07-29T05:32:41;102022.19;;;15.56;72.47
67099;BME280;54288;53.046;5.668;2022-07-29T05:35:07;102015.19;;;15.53;72.52
67099;BME280;54288;53.046;5.668;2022-07-29T05:37:33;102022.09;;;15.59;72.56
67099;BME280;54288;53.046;5.668;2022-07-29T05:39:59;102000.19;;;15.54;72.37
67099;BME280;54288;53.046;5.668;2022-07-29T05:42:25;102016.81;;;15.59;72.23
67099;BME280;54288;53.046;5.668;2022-07-29T05:44:51;102014.88;;;15.67;72.59
67099;BME280;54288;53.046;5.668;2022-07-29T05:47:17;102017.78;;;15.93;71.56
67099;BME280;54288;53.046;5.668;2022-07-29T05:49:43;101998.88;;;16.09;70.83
67099;BME280;54288;53.046;5.668;2022-07-29T05:52:09;102021.34;;;16.60;69.89
67099;BME280;54288;53.046;5.668;2022-07-29T05:54:35;102014.16;;;16.97;68.00
67099;BME280;54288;53.046;5.668;2022-07-29T05:57:01;102012.88;;;17.42;66.39
67099;BME280;54288;53.046;5.668;2022-07-29T05:59:26;102025.81;;;17.80;66.09
67099;BME280;54288;53.046;5.668;2022-07-29T06:01:52;102011.66;;;18.07;63.95
67099;BME280;54288;53.046;5.668;2022-07-29T06:04:18;102015.19;;;18.08;63.72
67099;BME280;54288;53.046;5.668;2022-07-29T06:06:43;102029.50;;;18.30;62.70
67099;BME280;54288;53.046;5.668;2022-07-29T06:09:09;102023.84;;;18.40;62.32
67099;BME280;54288;53.046;5.668;2022-07-29T06:11:35;102021.69;;;18.51;61.30
67099;BME280;54288;53.046;5.668;2022-07-29T06:14:00;102015.16;;;18.35;61.55
67099;BME280;54288;53.046;5.668;2022-07-29T06:16:28;102020.59;;;18.32;62.39
67099;BME280;54288;53.046;5.668;2022-07-29T06:18:54;102026.16;;;18.23;61.80
67099;BME280;54288;53.046;5.668;2022-07-29T06:21:19;102017.88;;;18.06;62.15
67099;BME280;54288;53.046;5.668;2022-07-29T06:23:45;102014.75;;;18.21;62.13
67099;BME280;54288;53.046;5.668;2022-07-29T06:26:10;102014.75;;;18.21;62.42
67099;BME280;54288;53.046;5.668;2022-07-29T06:28:36;102017.16;;;18.29;62.35
67099;BME280;54288;53.046;5.668;2022-07-29T06:31:02;102020.19;;;18.17;61.95
67099;BME280;54288;53.046;5.668;2022-07-29T06:33:28;102031.22;;;18.31;62.18
67099;BME280;54288;53.046;5.668;2022-07-29T06:35:54;102026.34;;;18.45;61.73
67099;BME280;54288;53.046;5.668;2022-07-29T06:38:20;102025.38;;;18.47;61.17
67099;BME280;54288;53.046;5.668;2022-07-29T06:40:46;102020.63;;;18.57;61.00
67099;BME280;54288;53.046;5.668;2022-07-29T06:43:33;102024.91;;;18.61;60.57
67099;BME280;54288;53.046;5.668;2022-07-29T06:46:06;102009.72;;;18.64;60.61
67099;BME280;54288;53.046;5.668;2022-07-29T06:48:33;102025.09;;;18.55;60.05
67099;BME280;54288;53.046;5.668;2022-07-29T06:50:59;102018.13;;;18.52;61.99
67099;BME280;54288;53.046;5.668;2022-07-29T06:53:26;102019.22;;;18.71;60.92
67099;BME280;54288;53.046;5.668;2022-07-29T06:55:52;101998.84;;;18.47;60.38
67099;BME280;54288;53.046;5.668;2022-07-29T06:58:18;102019.72;;;18.58;60.37
67099;BME280;54288;53.046;5.668;2022-07-29T07:00:55;102025.94;;;18.57;60.40
67099;BME280;54288;53.046;5.668;2022-07-29T07:03:21;102025.66;;;18.40;61.51
67099;BME280;54288;53.046;5.668;2022-07-29T07:05:46;102025.91;;;18.32;61.08
67099;BME280;54288;53.046;5.668;2022-07-29T07:08:13;102003.25;;;18.21;61.86
67099;BME280;54288;53.046;5.668;2022-07-29T07:10:39;102027.47;;;18.38;62.03
67099;BME280;54288;53.046;5.668;2022-07-29T07:13:05;102031.22;;;18.31;60.90
67099;BME280;54288;53.046;5.668;2022-07-29T07:15:31;102041.03;;;18.29;61.34
67099;BME280;54288;53.046;5.668;2022-07-29T07:17:57;102010.69;;;18.10;61.15
67099;BME280;54288;53.046;5.668;2022-07-29T07:20:25;102034.16;;;18.22;61.58
67099;BME280;54288;53.046;5.668;2022-07-29T07:22:51;102033.16;;;18.26;61.14
67099;BME280;54288;53.046;5.668;2022-07-29T07:25:16;102030.63;;;18.23;61.37
67099;BME280;54288;53.046;5.668;2022-07-29T07:27:43;102035.75;;;18.27;61.49
67099;BME280;54288;53.046;5.668;2022-07-29T07:30:10;102032.47;;;18.19;61.14
67099;BME280;54288;53.046;5.668;2022-07-29T07:32:36;102041.38;;;18.17;61.45
67099;BME280;54288;53.046;5.668;2022-07-29T07:35:04;102031.06;;;18.09;60.92
67099;BME280;54288;53.046;5.668;2022-07-29T07:37:31;102036.25;;;18.12;61.30
67099;BME280;54288;53.046;5.668;2022-07-29T07:39:57;102037.16;;;18.11;62.07
67099;BME280;54288;53.046;5.668;2022-07-29T07:42:23;102034.91;;;18.25;61.50
67099;BME280;54288;53.046;5.668;2022-07-29T07:44:49;102044.22;;;18.40;61.53
67099;BME280;54288;53.046;5.668;2022-07-29T07:47:15;102042.97;;;18.50;60.95
67099;BME280;54288;53.046;5.668;2022-07-29T07:49:48;102040.38;;;18.48;60.89
67099;BME280;54288;53.046;5.668;2022-07-29T07:52:16;102036.34;;;18.63;60.16
67099;BME280;54288;53.046;5.668;2022-07-29T07:54:42;102042.72;;;18.82;60.07
67099;BME280;54288;53.046;5.668;2022-07-29T07:57:09;102045.91;;;18.91;58.91
67099;BME280;54288;53.046;5.668;2022-07-29T07:59:35;102036.09;;;18.93;59.15
67099;BME280;54288;53.046;5.668;2022-07-29T08:02:01;102046.09;;;19.11;59.25
67099;BME280;54288;53.046;5.668;2022-07-29T08:04:26;102037.75;;;19.22;58.68
67099;BME280;54288;53.046;5.668;2022-07-29T08:06:52;102047.88;;;19.35;58.89
67099;BME280;54288;53.046;5.668;2022-07-29T08:09:24;102041.81;;;19.32;58.46
67099;BME280;54288;53.046;5.668;2022-07-29T08:11:50;102041.91;;;19.29;58.11
67099;BME280;54288;53.046;5.668;2022-07-29T08:14:16;102040.00;;;19.32;59.07
67099;BME280;54288;53.046;5.668;2022-07-29T08:16:42;102040.88;;;19.33;58.55
67099;BME280;54288;53.046;5.668;2022-07-29T08:19:08;102028.00;;;19.22;58.43
67099;BME280;54288;53.046;5.668;2022-07-29T08:21:35;102029.56;;;19.28;58.62
67099;BME280;54288;53.046;5.668;2022-07-29T08:24:01;102031.59;;;19.20;58.59
67099;BME280;54288;53.046;5.668;2022-07-29T08:26:45;102041.75;;;19.09;58.50
67099;BME280;54288;53.046;5.668;2022-07-29T08:29:11;102025.22;;;19.01;59.48
67099;BME280;54288;53.046;5.668;2022-07-29T08:31:38;102024.25;;;19.03;59.34
67099;BME280;54288;53.046;5.668;2022-07-29T08:34:05;102042.06;;;19.00;59.81
67099;BME280;54288;53.046;5.668;2022-07-29T08:36:32;102023.75;;;18.92;59.07
67099;BME280;54288;53.046;5.668;2022-07-29T08:38:59;102029.13;;;18.91;60.80
67099;BME280;54288;53.046;5.668;2022-07-29T08:41:26;102030.69;;;18.96;60.05
67099;BME280;54288;53.046;5.668;2022-07-29T08:43:52;102016.19;;;18.82;59.42
67099;BME280;54288;53.046;5.668;2022-07-29T08:46:19;102024.94;;;18.84;59.68
67099;BME280;54288;53.046;5.668;2022-07-29T08:48:45;102025.09;;;18.81;60.21
67099;BME280;54288;53.046;5.668;2022-07-29T08:51:15;102018.56;;;18.65;60.17
67099;BME280;54288;53.046;5.668;2022-07-29T08:53:43;102021.94;;;18.70;60.88
67099;BME280;54288;53.046;5.668;2022-07-29T08:56:14;102010.03;;;18.57;60.99
67099;BME280;54288;53.046;5.668;2022-07-29T08:58:42;102029.41;;;18.59;60.42
67099;BME280;54288;53.046;5.668;2022-07-29T09:01:08;102015.25;;;18.58;61.32
67099;BME280;54288;53.046;5.668;2022-07-29T09:03:36;102009.31;;;18.52;61.50
67099;BME280;54288;53.046;5.668;2022-07-29T09:06:04;102012.69;;;18.57;61.59
67099;BME280;54288;53.046;5.668;2022-07-29T09:08:33;102023.75;;;18.68;61.40
67099;BME280;54288;53.046;5.668;2022-07-29T09:11:01;102027.28;;;18.68;61.80
67099;BME280;54288;53.046;5.668;2022-07-29T09:13:27;102016.88;;;18.62;61.44
67099;BME280;54288;53.046;5.668;2022-07-29T09:15:52;102022.91;;;18.67;61.22
67099;BME280;54288;53.046;5.668;2022-07-29T09:18:35;102022.91;;;18.67;61.09
67099;BME280;54288;53.046;5.668;2022-07-29T09:21:02;102018.56;;;18.65;61.71
67099;BME280;54288;53.046;5.668;2022-07-29T09:24:11;102014.78;;;18.72;61.69
67099;BME280;54288;53.046;5.668;2022-07-29T09:26:45;102022.69;;;18.73;62.10
67099;BME280;54288;53.046;5.668;2022-07-29T09:29:17;102024.31;;;18.77;61.91
67099;BME280;54288;53.046;5.668;2022-07-29T09:31:51;102020.00;;;18.75;61.57
67099;BME280;54288;53.046;5.668;2022-07-29T09:34:26;102016.19;;;18.82;62.08
67099;BME280;54288;53.046;5.668;2022-07-29T09:36:54;102006.22;;;18.88;61.47
67099;BME280;54288;53.046;5.668;2022-07-29T09:41:59;102011.19;;;18.97;61.25
67099;BME280;54288;53.046;5.668;2022-07-29T09:44:25;102000.53;;;18.99;61.38
67099;BME280;54288;53.046;5.668;2022-07-29T09:46:59;101999.25;;;19.09;61.83
67099;BME280;54288;53.046;5.668;2022-07-29T09:49:35;101991.88;;;19.17;60.77
67099;BME280;54288;53.046;5.668;2022-07-29T09:52:09;101987.84;;;19.30;60.51
67099;BME280;54288;53.046;5.668;2022-07-29T09:54:36;101976.97;;;19.36;60.27
67099;BME280;54288;53.046;5.668;2022-07-29T09:57:09;101987.78;;;19.54;59.69
67099;BME280;54288;53.046;5.668;2022-07-29T10:02:50;102002.50;;;20.27;58.51
67099;BME280;54288;53.046;5.668;2022-07-29T10:05:17;102006.47;;;20.79;58.03
67099;BME280;54288;53.046;5.668;2022-07-29T10:07:55;102009.13;;;21.19;56.92
67099;BME280;54288;53.046;5.668;2022-07-29T10:10:30;101999.59;;;21.13;55.50
67099;BME280;54288;53.046;5.668;2022-07-29T10:12:57;101994.31;;;21.12;55.32
67099;BME280;54288;53.046;5.668;2022-07-29T10:15:28;101997.09;;;20.90;55.45
67099;BME280;54288;53.046;5.668;2022-07-29T10:17:55;102002.22;;;20.75;56.46
67099;BME280;54288;53.046;5.668;2022-07-29T10:20:23;102003.00;;;20.77;56.30
67099;BME280;54288;53.046;5.668;2022-07-29T10:22:50;101995.94;;;20.76;56.12
67099;BME280;54288;53.046;5.668;2022-07-29T10:25:17;101996.50;;;20.64;56.77
67099;BME280;54288;53.046;5.668;2022-07-29T10:27:45;101985.16;;;20.59;56.92
67099;BME280;54288;53.046;5.668;2022-07-29T10:30:14;101988.91;;;20.75;56.33
67099;BME280;54288;53.046;5.668;2022-07-29T10:38:30;101979.63;;;20.63;56.93
67099;BME280;54288;53.046;5.668;2022-07-29T10:43:58;101992.50;;;20.74;56.81
67099;BME280;54288;53.046;5.668;2022-07-29T10:46:26;101988.06;;;20.73;56.62
67099;BME280;54288;53.046;5.668;2022-07-29T10:54:37;101997.53;;;20.60;57.48
67099;BME280;54288;53.046;5.668;2022-07-29T10:57:33;101994.88;;;20.60;57.19
67099;BME280;54288;53.046;5.668;2022-07-29T11:05:10;101993.53;;;20.50;58.30
67099;BME280;54288;53.046;5.668;2022-07-29T11:07:39;101991.44;;;20.58;58.48
67099;BME280;54288;53.046;5.668;2022-07-29T11:15:13;102005.94;;;20.51;58.28
67099;BME280;54288;53.046;5.668;2022-07-29T11:22:57;101990.50;;;20.59;57.77
67099;BME280;54288;53.046;5.668;2022-07-29T11:25:23;102003.41;;;20.68;58.70
67099;BME280;54288;53.046;5.668;2022-07-29T11:27:51;101977.78;;;20.65;58.14
67099;BME280;54288;53.046;5.668;2022-07-29T11:30:17;102002.59;;;20.86;57.21
67099;BME280;54288;53.046;5.668;2022-07-29T11:32:44;101986.91;;;20.80;57.07
67099;BME280;54288;53.046;5.668;2022-07-29T11:37:46;101987.97;;;20.76;56.41
67099;BME280;54288;53.046;5.668;2022-07-29T11:40:14;101988.16;;;20.91;56.50
67099;BME280;54288;53.046;5.668;2022-07-29T11:42:43;101993.81;;;21.04;56.38
67099;BME280;54288;53.046;5.668;2022-07-29T11:45:19;101998.88;;;21.10;55.89
67099;BME280;54288;53.046;5.668;2022-07-29T11:50:16;101999.81;;;21.09;55.16
67099;BME280;54288;53.046;5.668;2022-07-29T11:52:45;102000.97;;;21.22;55.73
67099;BME280;54288;53.046;5.668;2022-07-29T11:55:16;102000.38;;;21.15;56.04
67099;BME280;54288;53.046;5.668;2022-07-29T11:57:50;102007.03;;;21.25;54.74
67099;BME280;54288;53.046;5.668;2022-07-29T12:00:45;101999.16;;;21.41;53.96
67099;BME280;54288;53.046;5.668;2022-07-29T12:03:11;102004.03;;;21.51;54.65
67099;BME280;54288;53.046;5.668;2022-07-29T12:05:41;102000.53;;;21.49;54.83
67099;BME280;54288;53.046;5.668;2022-07-29T12:08:18;101983.75;;;21.47;53.68
67099;BME280;54288;53.046;5.668;2022-07-29T12:10:46;101988.91;;;21.33;54.39
67099;BME280;54288;53.046;5.668;2022-07-29T12:13:14;101988.25;;;21.28;54.36
67099;BME280;54288;53.046;5.668;2022-07-29T12:15:40;101998.75;;;21.31;54.86
67099;BME280;54288;53.046;5.668;2022-07-29T12:18:20;102000.94;;;21.42;55.05
67099;BME280;54288;53.046;5.668;2022-07-29T12:20:47;101990.25;;;21.42;55.74
67099;BME280;54288;53.046;5.668;2022-07-29T12:23:14;101984.13;;;21.40;53.80
67099;BME280;54288;53.046;5.668;2022-07-29T12:25:43;101988.75;;;21.55;54.55
67099;BME280;54288;53.046;5.668;2022-07-29T12:28:14;101993.69;;;21.99;53.62
67099;BME280;54288;53.046;5.668;2022-07-29T12:30:49;101985.47;;;22.38;51.47
67099;BME280;54288;53.046;5.668;2022-07-29T12:35:51;101965.69;;;22.76;50.39
67099;BME280;54288;53.046;5.668;2022-07-29T12:38:22;101969.91;;;22.97;50.28
67099;BME280;54288;53.046;5.668;2022-07-29T12:40:49;101976.38;;;23.08;49.85
67099;BME280;54288;53.046;5.668;2022-07-29T12:43:22;101971.22;;;23.05;50.13
67099;BME280;54288;53.046;5.668;2022-07-29T12:45:53;101986.97;;;23.27;51.28
67099;BME280;54288;53.046;5.668;2022-07-29T12:48:40;101980.59;;;23.45;49.81
67099;BME280;54288;53.046;5.668;2022-07-29T12:51:07;101976.28;;;23.27;48.81
67099;BME280;54288;53.046;5.668;2022-07-29T12:53:35;101977.31;;;23.24;50.00
67099;BME280;54288;53.046;5.668;2022-07-29T12:56:01;101973.13;;;23.36;49.95
67099;BME280;54288;53.046;5.668;2022-07-29T12:58:32;101971.97;;;23.40;50.13
67099;BME280;54288;53.046;5.668;2022-07-29T13:03:25;101972.59;;;23.45;49.28
67099;BME280;54288;53.046;5.668;2022-07-29T13:05:51;101969.72;;;23.79;48.60
67099;BME280;54288;53.046;5.668;2022-07-29T13:08:17;101971.56;;;23.78;48.31
67099;BME280;54288;53.046;5.668;2022-07-29T13:10:46;101969.81;;;23.62;48.65
67099;BME280;54288;53.046;5.668;2022-07-29T13:13:14;101967.75;;;23.67;49.19
67099;BME280;54288;53.046;5.668;2022-07-29T13:15:45;101969.13;;;23.74;48.52
67099;BME280;54288;53.046;5.668;2022-07-29T13:18:34;101971.28;;;23.83;48.65
67099;BME280;54288;53.046;5.668;2022-07-29T13:21:27;101969.16;;;23.89;48.25
67099;BME280;54288;53.046;5.668;2022-07-29T13:23:53;101965.25;;;23.95;47.83
67099;BME280;54288;53.046;5.668;2022-07-29T13:26:18;101969.38;;;23.85;48.45
67099;BME280;54288;53.046;5.668;2022-07-29T13:28:45;101966.13;;;23.95;48.65
67099;BME280;54288;53.046;5.668;2022-07-29T13:31:10;101975.31;;;24.21;48.42
67099;BME280;54288;53.046;5.668;2022-07-29T13:33:36;101959.72;;;24.13;48.59
67099;BME280;54288;53.046;5.668;2022-07-29T13:36:02;101956.84;;;24.16;50.57
67099;BME280;54288;53.046;5.668;2022-07-29T13:38:27;101956.59;;;24.21;47.00
67099;BME280;54288;53.046;5.668;2022-07-29T13:40:53;101966.94;;;24.11;47.50
67099;BME280;54288;53.046;5.668;2022-07-29T13:43:19;101955.13;;;24.15;47.15
67099;BME280;54288;53.046;5.668;2022-07-29T13:45:44;101943.84;;;23.95;47.05
67099;BME280;54288;53.046;5.668;2022-07-29T13:48:10;101952.88;;;24.08;48.00
67099;BME280;54288;53.046;5.668;2022-07-29T13:50:36;101961.97;;;24.35;47.19
67099;BME280;54288;53.046;5.668;2022-07-29T13:53:02;101946.31;;;24.43;46.14
67099;BME280;54288;53.046;5.668;2022-07-29T13:55:27;101949.34;;;24.37;47.79
67099;BME280;54288;53.046;5.668;2022-07-29T13:57:53;101949.31;;;24.23;47.86
67099;BME280;54288;53.046;5.668;2022-07-29T14:00:19;101948.34;;;24.24;48.37
67099;BME280;54288;53.046;5.668;2022-07-29T14:02:44;101946.41;;;24.12;48.89